createdAt,value
2022-09-13T00:01:27.704Z,5.35
2022-09-13T00:04:15.574Z,4.57
2022-09-13T00:06:49.657Z,5.30
2022-09-13T00:09:36.561Z,5.90
2022-09-13T00:12:17.570Z,6.15
2022-09-13T00:14:58.515Z,7.05
2022-09-13T00:17:46.560Z,6.97
2022-09-13T00:20:20.582Z,5.43
2022-09-13T00:23:08.577Z,8.73
2022-09-13T00:25:48.583Z,11.55
2022-09-13T00:28:36.626Z,11.02
2022-09-13T00:31:10.918Z,8.77
2022-09-13T00:33:58.583Z,5.43
2022-09-13T00:36:32.525Z,4.65
2022-09-13T00:39:20.576Z,4.88
2022-09-13T00:41:54.565Z,6.05
2022-09-13T00:45:17.593Z,5.30
2022-09-13T00:47:57.582Z,5.35
2022-09-13T00:50:46.647Z,4.20
2022-09-13T00:53:36.674Z,3.95
2022-09-13T00:56:29.629Z,9.50
2022-09-13T00:59:12.576Z,5.85
2022-09-13T01:02:03.963Z,3.75
2022-09-13T01:04:43.571Z,7.38
2022-09-13T01:07:24.632Z,4.15
2022-09-13T01:10:05.568Z,4.93
2022-09-13T01:12:53.567Z,8.82
2022-09-13T01:15:27.599Z,5.20
2022-09-13T01:18:15.600Z,4.93
2022-09-13T01:21:14.587Z,5.43
2022-09-13T01:24:22.579Z,4.88
2022-09-13T01:27:15.124Z,4.22
2022-09-13T01:30:29.583Z,7.05
2022-09-13T01:33:03.520Z,4.55
2022-09-13T01:35:54.569Z,4.75
2022-09-13T01:38:28.555Z,4.80
2022-09-13T01:41:19.570Z,7.07
2022-09-13T01:44:12.364Z,5.22
2022-09-13T01:47:11.577Z,4.03
2022-09-13T01:50:01.576Z,4.80
2022-09-13T01:52:48.640Z,5.68
2022-09-13T01:55:33.585Z,5.10
2022-09-13T01:58:20.668Z,5.22
2022-09-13T02:01:07.626Z,5.47
2022-09-13T02:04:12.591Z,7.32
2022-09-13T02:06:55.606Z,5.13
2022-09-13T02:09:41.701Z,4.32
2022-09-13T02:12:24.609Z,5.35
2022-09-13T02:15:10.761Z,5.72
2022-09-13T02:17:57.579Z,5.20
2022-09-13T02:20:40.661Z,6.82
2022-09-13T02:23:45.624Z,8.95
2022-09-13T02:26:34.585Z,6.05
2022-09-13T02:29:18.641Z,6.78
2022-09-13T02:32:22.755Z,6.95
2022-09-13T02:35:10.106Z,6.95
2022-09-13T02:40:34.993Z,6.53
2022-09-13T02:43:27.612Z,7.38
2022-09-13T02:46:15.974Z,6.30
2022-09-13T02:49:06.611Z,4.95
2022-09-13T02:51:46.636Z,5.93
2022-09-13T02:54:47.599Z,6.43
2022-09-13T02:59:55.538Z,5.75
2022-09-13T03:02:46.617Z,10.57
2022-09-13T03:05:20.658Z,7.55
2022-09-13T03:08:08.597Z,8.32
2022-09-13T03:11:01.069Z,7.03
2022-09-13T03:14:08.614Z,7.00
2022-09-13T03:16:57.114Z,6.18
2022-09-13T03:19:44.593Z,7.85
2022-09-13T03:22:33.773Z,6.22
2022-09-13T03:25:41.606Z,9.32
2022-09-13T03:28:33.617Z,6.90
2022-09-13T03:31:32.644Z,8.10
2022-09-13T03:34:09.308Z,7.30
2022-09-13T03:37:22.591Z,6.97
2022-09-13T03:40:16.785Z,10.10
2022-09-13T03:43:09.607Z,9.45
2022-09-13T03:46:02.688Z,7.88
2022-09-13T03:48:46.678Z,10.00
2022-09-13T03:51:27.604Z,6.43
2022-09-13T03:54:09.681Z,7.72
2022-09-13T03:56:50.593Z,8.50
2022-09-13T03:59:31.691Z,7.70
2022-09-13T04:02:17.707Z,10.32
2022-09-13T04:05:05.607Z,10.60
2022-09-13T04:07:45.629Z,8.98
2022-09-13T04:10:33.616Z,10.50
2022-09-13T04:13:07.538Z,10.98
2022-09-13T04:15:55.625Z,9.20
2022-09-13T04:18:50.604Z,11.48
2022-09-13T04:21:37.648Z,8.35
2022-09-13T04:24:11.667Z,9.50
2022-09-13T04:27:00.613Z,9.88
2022-09-13T04:29:34.691Z,8.27
2022-09-13T04:32:22.613Z,8.15
2022-09-13T04:35:03.620Z,10.00
2022-09-13T04:37:58.593Z,9.68
2022-09-13T04:40:45.632Z,9.48
2022-09-13T04:43:19.674Z,11.60
2022-09-13T04:46:07.671Z,11.27
2022-09-13T04:48:41.676Z,13.07
2022-09-13T04:51:29.617Z,11.50
2022-09-13T04:54:03.684Z,11.65
2022-09-13T04:56:52.624Z,13.82
2022-09-13T04:59:26.756Z,10.75
2022-09-13T05:02:13.677Z,8.60
2022-09-13T05:04:47.687Z,7.20
2022-09-13T05:07:34.642Z,12.00
2022-09-13T05:10:09.178Z,10.23
2022-09-13T05:12:55.642Z,12.93
2022-09-13T05:15:43.654Z,15.77
2022-09-13T05:18:17.581Z,9.20
2022-09-13T05:21:07.635Z,6.00
2022-09-13T05:23:41.572Z,10.45
2022-09-13T05:26:29.629Z,6.18
2022-09-13T05:29:04.788Z,6.97
2022-09-13T05:31:53.641Z,7.45
2022-09-13T05:34:40.631Z,5.37
2022-09-13T05:37:34.598Z,7.07
2022-09-13T05:40:21.707Z,7.88
2022-09-13T05:42:55.695Z,6.78
2022-09-13T05:45:42.630Z,4.70
2022-09-13T05:48:23.647Z,6.32
2022-09-13T05:51:18.636Z,7.18
2022-09-13T05:54:06.628Z,4.72
2022-09-13T05:56:40.735Z,6.60
2022-09-13T05:59:27.654Z,15.95
2022-09-13T06:02:08.704Z,9.40
2022-09-13T06:04:57.651Z,3.97
2022-09-13T06:07:31.956Z,6.10
2022-09-13T06:10:19.644Z,7.22
2022-09-13T06:12:53.720Z,6.38
2022-09-13T06:15:43.348Z,5.18
2022-09-13T06:18:24.648Z,8.55
2022-09-13T06:21:28.430Z,7.18
2022-09-13T06:24:16.656Z,6.03
2022-09-13T06:26:50.693Z,27.63
2022-09-13T06:29:37.617Z,7.47
2022-09-13T06:32:11.707Z,5.15
2022-09-13T06:34:59.630Z,7.85
2022-09-13T06:37:33.720Z,8.55
2022-09-13T06:40:25.123Z,11.07
2022-09-13T06:42:59.685Z,13.13
2022-09-13T06:45:48.712Z,5.50
2022-09-13T06:48:22.882Z,6.47
2022-09-13T06:51:11.670Z,4.93
2022-09-13T06:53:52.644Z,8.65
2022-09-13T06:56:48.646Z,8.32
2022-09-13T06:59:36.638Z,5.25
2022-09-13T07:02:10.863Z,6.03
2022-09-13T07:04:57.649Z,5.00
2022-09-13T07:07:31.775Z,8.80
2022-09-13T07:10:18.666Z,6.65
2022-09-13T07:12:52.716Z,8.82
2022-09-13T07:15:43.661Z,10.00
2022-09-13T07:18:24.728Z,10.68
2022-09-13T07:21:12.649Z,6.85
2022-09-13T07:24:00.655Z,6.82
2022-09-13T07:26:34.860Z,9.55
2022-09-13T07:29:25.657Z,7.85
2022-09-13T07:31:59.727Z,10.73
2022-09-13T07:34:47.633Z,8.18
2022-09-13T07:37:21.583Z,7.13
2022-09-13T07:40:09.679Z,11.05
2022-09-13T07:42:43.909Z,12.18
2022-09-13T07:45:31.648Z,12.57
2022-09-13T07:48:05.592Z,8.07
2022-09-13T07:50:53.682Z,11.90
2022-09-13T07:53:34.649Z,8.32
2022-09-13T07:56:16.750Z,6.20
2022-09-13T07:58:57.663Z,11.18
2022-09-13T08:01:45.955Z,6.68
2022-09-13T08:04:27.675Z,8.57
2022-09-13T08:07:08.732Z,9.23
2022-09-13T08:09:48.656Z,9.35
2022-09-13T08:12:29.840Z,6.40
2022-09-13T08:15:17.683Z,5.60
2022-09-13T08:17:52.699Z,7.05
2022-09-13T08:20:42.679Z,6.88
2022-09-13T08:26:18.658Z,8.52
2022-09-13T08:29:06.686Z,6.35
2022-09-13T08:31:40.748Z,9.13
2022-09-13T08:34:28.676Z,4.35
2022-09-13T08:37:02.735Z,11.13
2022-09-13T08:39:49.708Z,6.93
2022-09-13T08:42:27.762Z,12.75
2022-09-13T08:45:15.690Z,13.30
2022-09-13T08:48:09.733Z,6.95
2022-09-13T08:51:00.690Z,8.27
2022-09-13T08:53:38.469Z,7.40
2022-09-13T08:56:30.691Z,5.65
2022-09-13T08:59:32.770Z,8.85
2022-09-13T09:02:32.728Z,8.00
2022-09-13T09:05:16.664Z,5.43
2022-09-13T09:08:25.683Z,7.15
2022-09-13T09:11:33.695Z,9.32
2022-09-13T09:14:31.193Z,10.57
2022-09-13T09:17:27.704Z,7.72
2022-09-13T09:20:18.716Z,7.60
2022-09-13T09:23:01.679Z,6.90
2022-09-13T09:25:49.661Z,7.60
2022-09-13T09:28:23.637Z,9.32
2022-09-13T09:31:14.759Z,8.65
2022-09-13T09:33:56.681Z,14.52
2022-09-13T09:36:50.686Z,8.82
2022-09-13T09:39:30.250Z,8.50
2022-09-13T09:42:17.695Z,8.95
2022-09-13T09:45:03.030Z,10.23
2022-09-13T09:47:55.694Z,7.78
2022-09-13T09:50:36.478Z,10.07
2022-09-13T09:53:33.615Z,9.10
2022-09-13T09:56:15.472Z,7.30
2022-09-13T09:59:02.711Z,7.97
2022-09-13T10:01:38.271Z,8.30
2022-09-13T10:04:25.690Z,9.23
2022-09-13T10:07:37.762Z,14.55
2022-09-13T10:10:43.723Z,12.63
2022-09-13T10:13:31.737Z,8.40
2022-09-13T10:16:42.711Z,8.57
2022-09-13T10:19:32.705Z,10.57
2022-09-13T10:24:54.734Z,8.02
2022-09-13T10:27:42.807Z,7.90
2022-09-13T10:30:33.749Z,13.27
2022-09-13T10:33:08.807Z,8.82
2022-09-13T10:35:57.713Z,9.43
2022-09-13T10:38:35.901Z,9.20
2022-09-13T10:41:33.884Z,7.88
2022-09-13T10:44:09.926Z,7.50
2022-09-13T10:46:57.710Z,10.82
2022-09-13T10:49:43.810Z,9.70
2022-09-13T10:52:30.709Z,6.93
2022-09-13T10:55:33.717Z,6.93
2022-09-13T10:58:28.708Z,6.88
2022-09-13T11:01:39.723Z,11.45
2022-09-13T11:04:46.710Z,9.77
2022-09-13T11:08:01.721Z,8.82
2022-09-13T11:11:09.714Z,10.40
2022-09-13T11:13:44.954Z,7.85
2022-09-13T11:16:35.754Z,7.57
2022-09-13T11:19:15.527Z,7.65
2022-09-13T11:22:11.710Z,5.95
2022-09-13T11:24:45.636Z,8.73
2022-09-13T11:27:44.708Z,6.07
2022-09-13T11:30:21.103Z,6.40
2022-09-13T11:33:11.707Z,6.05
2022-09-13T11:35:45.612Z,5.68
2022-09-13T11:38:41.707Z,4.93
2022-09-13T11:41:33.636Z,7.90
2022-09-13T11:44:24.743Z,6.80
2022-09-13T11:47:13.736Z,4.00
2022-09-13T11:50:10.729Z,5.28
2022-09-13T11:53:02.738Z,7.32
2022-09-13T11:56:14.725Z,5.63
2022-09-13T11:59:00.749Z,8.38
2022-09-13T12:01:52.748Z,5.53
2022-09-13T12:04:59.504Z,11.43
2022-09-13T12:07:47.842Z,6.78
2022-09-13T12:10:46.740Z,6.15
2022-09-13T12:13:23.843Z,6.97
2022-09-13T12:16:15.771Z,9.38
2022-09-13T12:18:51.812Z,5.90
2022-09-13T12:21:44.731Z,6.03
2022-09-13T12:24:40.801Z,5.85
2022-09-13T12:27:40.736Z,6.00
2022-09-13T12:30:28.752Z,6.93
2022-09-13T12:33:22.832Z,6.03
2022-09-13T12:36:20.737Z,6.15
2022-09-13T12:38:54.835Z,6.30
2022-09-13T12:41:53.749Z,6.60
2022-09-13T12:44:36.808Z,9.82
2022-09-13T12:47:40.751Z,8.70
2022-09-13T12:50:43.938Z,6.03
2022-09-13T12:53:49.867Z,7.00
2022-09-13T12:56:33.746Z,8.10
2022-09-13T12:59:41.732Z,8.45
2022-09-13T13:02:40.756Z,11.55
2022-09-13T13:05:27.674Z,10.00
2022-09-13T13:08:17.759Z,8.05
2022-09-13T13:11:00.576Z,8.50
2022-09-13T13:13:52.739Z,5.88
2022-09-13T13:16:27.425Z,7.40
2022-09-13T13:19:17.744Z,11.82
2022-09-13T13:21:51.706Z,8.63
2022-09-13T13:24:42.750Z,12.40
2022-09-13T13:27:37.000Z,14.35
2022-09-13T13:30:48.772Z,8.20
2022-09-13T13:33:24.265Z,11.45
2022-09-13T13:36:11.754Z,9.07
2022-09-13T13:38:49.795Z,12.85
2022-09-13T13:41:49.758Z,13.30
2022-09-13T13:44:23.660Z,9.73
2022-09-13T13:47:23.883Z,9.80
2022-09-13T13:50:00.591Z,8.50
2022-09-13T13:53:02.774Z,10.35
2022-09-13T13:55:53.754Z,8.90
2022-09-13T13:59:09.844Z,14.73
2022-09-13T14:02:00.754Z,10.32
2022-09-13T14:04:54.867Z,8.57
2022-09-13T14:07:54.762Z,8.52
2022-09-13T14:13:44.779Z,10.35
2022-09-13T14:17:03.784Z,12.15
2022-09-13T14:20:03.899Z,9.05
2022-09-13T14:22:50.747Z,9.27
2022-09-13T14:25:28.295Z,10.93
2022-09-13T14:28:14.778Z,10.82
2022-09-13T14:30:48.816Z,8.68
2022-09-13T14:33:37.785Z,7.90
2022-09-13T14:36:15.844Z,9.68
2022-09-13T14:39:07.780Z,7.82
2022-09-13T14:41:44.837Z,13.10
2022-09-13T14:44:32.750Z,7.82
2022-09-13T14:47:14.823Z,8.90
2022-09-13T14:50:07.784Z,10.20
2022-09-13T14:52:54.840Z,9.40
2022-09-13T14:55:55.790Z,9.05
2022-09-13T14:58:56.791Z,7.38
2022-09-13T15:01:50.803Z,10.00
2022-09-13T15:04:42.434Z,8.45
2022-09-13T15:07:27.829Z,6.93
2022-09-13T15:10:14.781Z,7.47
2022-09-13T15:13:20.778Z,9.88
2022-09-13T15:15:55.190Z,7.65
2022-09-13T15:18:46.801Z,10.25
2022-09-13T15:21:20.766Z,10.05
2022-09-13T15:24:08.789Z,7.10
2022-09-13T15:26:49.764Z,7.53
2022-09-13T15:29:41.768Z,8.23
2022-09-13T15:32:22.664Z,7.00
2022-09-13T15:35:10.768Z,5.78
2022-09-13T15:37:44.834Z,7.28
2022-09-13T15:40:34.847Z,6.40
2022-09-13T15:43:08.751Z,6.65
2022-09-13T15:45:56.788Z,9.57
2022-09-13T15:48:32.103Z,9.80
2022-09-13T15:51:20.803Z,7.65
2022-09-13T15:53:55.222Z,6.47
2022-09-13T15:56:47.784Z,7.30
2022-09-13T15:59:22.607Z,10.23
2022-09-13T16:02:09.800Z,12.10
2022-09-13T16:04:43.746Z,7.72
2022-09-13T16:07:31.815Z,9.27
2022-09-13T16:10:33.789Z,6.63
2022-09-13T16:13:21.794Z,8.07
2022-09-13T16:16:08.826Z,6.72
2022-09-13T16:19:02.806Z,7.65
2022-09-13T16:21:50.805Z,7.25
2022-09-13T16:24:31.813Z,8.40
2022-09-13T16:27:33.846Z,7.93
2022-09-13T16:30:22.802Z,7.97
2022-09-13T16:33:03.787Z,8.30
2022-09-13T16:35:50.815Z,9.18
2022-09-13T16:38:24.903Z,7.93
2022-09-13T16:41:12.785Z,9.65
2022-09-13T16:43:46.889Z,15.80
2022-09-13T16:46:34.838Z,11.02
2022-09-13T16:49:08.917Z,10.95
2022-09-13T16:51:55.827Z,9.75
2022-09-13T16:54:35.010Z,11.77
2022-09-13T16:57:22.822Z,15.13
2022-09-13T16:59:58.587Z,14.20
2022-09-13T17:02:46.500Z,12.57
2022-09-13T17:05:21.181Z,11.10
2022-09-13T17:08:08.187Z,13.55
2022-09-13T17:10:51.999Z,13.40
2022-09-13T17:13:46.237Z,11.20
2022-09-13T17:16:36.274Z,9.38
2022-09-13T17:19:13.539Z,9.70
2022-09-13T17:22:06.994Z,10.65
2022-09-13T17:24:43.353Z,13.35
2022-09-13T17:27:30.330Z,14.68
2022-09-13T17:30:05.685Z,11.30
2022-09-13T17:32:53.259Z,13.32
2022-09-13T17:35:30.399Z,12.50
2022-09-13T17:38:18.203Z,13.48
2022-09-13T17:40:52.316Z,23.50
2022-09-13T17:43:39.344Z,23.13
2022-09-13T17:46:28.354Z,13.10
2022-09-13T17:49:23.297Z,12.25
2022-09-13T17:52:11.372Z,11.98
2022-09-13T17:54:47.048Z,17.35
2022-09-13T17:57:35.335Z,13.25
2022-09-13T18:00:13.971Z,12.38
2022-09-13T18:03:01.474Z,14.15
2022-09-13T18:05:36.411Z,14.77
2022-09-13T18:08:23.370Z,15.15
2022-09-13T18:11:13.966Z,15.88
2022-09-13T18:13:56.407Z,13.80
2022-09-13T18:16:37.597Z,14.48
2022-09-13T18:19:29.881Z,11.52
2022-09-13T18:22:27.488Z,16.75
2022-09-13T18:25:08.336Z,15.10
2022-09-13T18:27:56.349Z,11.63
2022-09-13T18:30:31.593Z,13.85
2022-09-13T18:33:22.691Z,13.90
2022-09-13T18:36:05.394Z,14.00
2022-09-13T18:38:49.416Z,15.60
2022-09-13T18:41:32.353Z,14.18
2022-09-13T18:44:20.366Z,14.25
2022-09-13T18:47:03.371Z,15.05
2022-09-13T18:49:44.534Z,18.00
2022-09-13T18:52:25.400Z,19.42
2022-09-13T18:55:06.455Z,17.73
2022-09-13T18:57:48.389Z,20.00
2022-09-13T19:00:29.723Z,22.08
2022-09-13T19:03:13.046Z,19.23
2022-09-13T19:05:54.495Z,19.75
2022-09-13T19:08:35.370Z,19.80
2022-09-13T19:11:42.067Z,21.98
2022-09-13T19:14:18.387Z,22.85
2022-09-13T19:17:05.071Z,18.13
2022-09-13T19:19:46.378Z,17.00
2022-09-13T19:22:34.434Z,17.33
2022-09-13T19:25:17.030Z,20.50
2022-09-13T19:27:59.515Z,22.23
2022-09-13T19:30:42.368Z,28.77
2022-09-13T19:33:23.457Z,20.95
2022-09-13T19:36:08.335Z,18.48
2022-09-13T19:38:56.389Z,24.15
2022-09-13T19:41:38.378Z,19.98
2022-09-13T19:44:27.287Z,21.25
2022-09-13T19:47:44.965Z,18.70
2022-09-13T19:50:10.115Z,20.08
2022-09-13T19:52:50.206Z,16.67
2022-09-13T19:55:33.399Z,14.25
2022-09-13T19:58:15.039Z,14.02
2022-09-13T20:00:56.081Z,20.58
2022-09-13T20:03:36.916Z,19.77
2022-09-13T20:06:19.275Z,15.60
2022-09-13T20:09:00.899Z,14.63
2022-09-13T20:11:45.489Z,12.02
2022-09-13T20:14:32.870Z,15.35
2022-09-13T20:17:07.213Z,14.32
2022-09-13T20:19:53.945Z,14.35
2022-09-13T20:22:27.940Z,15.70
2022-09-13T20:25:15.867Z,17.33
2022-09-13T20:27:49.935Z,15.27
2022-09-13T20:30:37.938Z,18.08
2022-09-13T20:33:19.851Z,15.68
2022-09-13T20:36:17.844Z,14.60
2022-09-13T20:39:05.857Z,15.48
2022-09-13T20:41:46.850Z,20.83
2022-09-13T20:44:40.863Z,16.25
2022-09-13T20:47:27.866Z,12.40
2022-09-13T20:50:08.852Z,15.18
2022-09-13T20:53:03.861Z,15.90
2022-09-13T20:55:58.834Z,12.55
2022-09-13T20:58:47.007Z,14.75
2022-09-13T21:01:29.994Z,21.75
2022-09-13T21:04:23.853Z,13.80
2022-09-13T21:10:05.247Z,12.18
2022-09-13T21:12:52.861Z,14.40
2022-09-13T21:15:33.862Z,15.23
2022-09-13T21:18:14.841Z,13.00
2022-09-13T21:21:08.862Z,11.18
2022-09-13T21:23:42.855Z,11.60
2022-09-13T21:26:33.835Z,11.65
2022-09-13T21:29:15.882Z,12.80
2022-09-13T21:31:56.990Z,11.05
2022-09-13T21:34:36.868Z,14.27
2022-09-13T21:37:17.937Z,10.70
2022-09-13T21:39:57.894Z,14.93
2022-09-13T21:42:39.226Z,15.38
2022-09-13T21:45:18.959Z,13.35
2022-09-13T21:48:06.856Z,16.42
2022-09-13T21:50:41.194Z,17.90
2022-09-13T21:53:28.865Z,12.15
2022-09-13T21:56:10.873Z,14.10
2022-09-13T21:58:58.923Z,13.68
2022-09-13T22:01:40.946Z,12.43
2022-09-13T22:04:28.028Z,14.23
2022-09-13T22:07:10.844Z,16.30
2022-09-13T22:09:51.936Z,11.25
2022-09-13T22:12:31.883Z,13.75
2022-09-13T22:15:19.876Z,11.50
2022-09-13T22:18:13.862Z,11.18
2022-09-13T22:21:01.878Z,11.57
2022-09-13T22:23:35.946Z,10.05
2022-09-13T22:26:26.851Z,14.02
2022-09-13T22:29:02.050Z,11.75
2022-09-13T22:31:51.870Z,9.57
2022-09-13T22:34:30.956Z,11.25
2022-09-13T22:37:18.876Z,14.65
2022-09-13T22:39:52.996Z,8.88
2022-09-13T22:42:39.877Z,10.57
2022-09-13T22:45:20.873Z,10.77
2022-09-13T22:48:14.886Z,10.98
2022-09-13T22:53:36.323Z,10.50
2022-09-13T22:56:24.876Z,11.48
2022-09-13T22:59:15.947Z,10.50
2022-09-13T23:01:56.891Z,10.73
2022-09-13T23:04:37.075Z,10.43
2022-09-13T23:07:17.880Z,9.52
2022-09-13T23:09:57.961Z,11.32
2022-09-13T23:12:38.859Z,8.70
2022-09-13T23:15:20.757Z,7.45
2022-09-13T23:18:01.858Z,6.47
2022-09-13T23:20:49.890Z,11.48
2022-09-13T23:23:43.868Z,9.98
2022-09-13T23:26:31.887Z,8.70
2022-09-13T23:29:13.028Z,6.53
2022-09-13T23:31:54.901Z,14.55
2022-09-13T23:34:35.950Z,9.35
2022-09-13T23:37:16.905Z,8.27
2022-09-13T23:40:06.967Z,6.68
2022-09-13T23:45:15.872Z,5.80
2022-09-13T23:47:56.967Z,9.02
2022-09-13T23:50:36.915Z,11.02
2022-09-13T23:53:17.957Z,4.47
2022-09-13T23:56:05.885Z,12.43
2022-09-13T23:58:39.977Z,6.00
